Time;durP1;ratioP1;P1;durP2;ratioP2;P2;SDS_P1;SDS_P2;PMS_P1;PMS_P2;Temp;Humidity;BMP_temperature;BMP_pressure;BME280_temperature;BME280_humidity;BME280_pressure;Samples;Min_cycle;Max_cycle;Signal;HPM_P1;HPM_P2
2023/02/25 00:00:35;;;;;;;10.05;1.60;;;;;;;7.05;58.72;100713.63;4970885;28;115056;-65
2023/02/25 00:03:02;;;;;;;8.77;1.70;;;;;;;7.04;58.89;100719.78;4991313;28;124745;-65
2023/02/25 00:05:29;;;;;;;9.40;1.70;;;;;;;7.03;58.59;100715.44;4988052;28;123606;-66
2023/02/25 00:07:59;;;;;;;10.32;1.45;;;;;;;7.00;58.86;100705.00;4991030;28;115228;-66
2023/02/25 00:10:26;;;;;;;4.97;1.63;;;;;;;6.99;58.62;100708.56;4987314;28;113946;-65
2023/02/25 00:12:53;;;;;;;4.82;1.60;;;;;;;6.98;58.55;100701.56;4989729;28;124291;-65
2023/02/25 00:15:22;;;;;;;13.52;1.98;;;;;;;6.97;58.85;100699.84;4990282;28;123948;-66
2023/02/25 00:17:49;;;;;;;9.75;1.60;;;;;;;6.95;58.51;100702.53;4989271;28;113955;-65
2023/02/25 00:20:21;;;;;;;9.98;1.60;;;;;;;6.97;58.93;100699.84;4973336;28;113130;-66
2023/02/25 00:22:48;;;;;;;13.85;1.88;;;;;;;6.95;58.84;100692.00;4987957;28;124353;-67
2023/02/25 00:25:16;;;;;;;12.80;1.88;;;;;;;6.94;58.98;100699.94;4987184;28;124296;-71
2023/02/25 00:27:44;;;;;;;12.75;2.15;;;;;;;6.94;59.12;100699.94;4985297;28;115279;-69
2023/02/25 00:30:12;;;;;;;7.95;1.95;;;;;;;6.92;58.61;100691.22;4973631;28;113103;-67
2023/02/25 00:32:39;;;;;;;8.85;1.75;;;;;;;6.92;58.88;100688.59;4989575;28;125329;-67
2023/02/25 00:35:11;;;;;;;7.97;1.52;;;;;;;6.91;59.13;100689.50;4972069;28;122872;-67
2023/02/25 00:37:38;;;;;;;12.93;1.95;;;;;;;6.91;58.78;100689.50;4973219;28;113154;-67
2023/02/25 00:40:13;;;;;;;7.80;1.75;;;;;;;6.91;58.81;100700.03;4990207;28;114082;-67
2023/02/25 00:42:41;;;;;;;10.05;1.60;;;;;;;6.91;59.06;100705.28;4972104;28;123117;-69
2023/02/25 00:45:10;;;;;;;8.73;1.63;;;;;;;6.92;59.05;100701.75;4972179;28;122784;-68
2023/02/25 00:47:38;;;;;;;10.63;1.40;;;;;;;6.94;58.92;100697.31;4972467;28;114528;-68
2023/02/25 00:50:08;;;;;;;9.13;1.63;;;;;;;6.95;59.00;100701.63;4954231;28;114056;-68
2023/02/25 00:52:36;;;;;;;9.35;1.40;;;;;;;6.97;59.12;100699.84;4972124;28;123817;-67
2023/02/25 00:55:05;;;;;;;8.68;2.05;;;;;;;6.99;59.21;100698.03;4987299;28;124016;-68
2023/02/25 00:57:32;;;;;;;5.47;1.55;;;;;;;7.00;59.26;100694.47;4972644;28;113327;-67
2023/02/25 00:59:59;;;;;;;5.95;1.30;;;;;;;7.00;58.98;100694.47;4984121;28;113917;-68
2023/02/25 01:02:27;;;;;;;11.60;1.50;;;;;;;7.00;59.02;100699.72;4989371;28;123940;-67
2023/02/25 01:04:54;;;;;;;10.82;1.75;;;;;;;7.01;59.04;100693.56;4985869;28;123768;-67
2023/02/25 01:07:22;;;;;;;11.10;1.90;;;;;;;7.03;59.17;100710.16;4989636;28;115230;-67
2023/02/25 01:09:49;;;;;;;10.38;1.65;;;;;;;7.05;58.84;100712.75;4987906;28;114222;-67
2023/02/25 01:12:16;;;;;;;9.52;1.38;;;;;;;7.03;59.07;100715.44;4971572;28;124066;-66
2023/02/25 01:14:43;;;;;;;7.63;1.30;;;;;;;7.05;58.90;100713.63;4955825;28;123128;-67
2023/02/25 01:17:11;;;;;;;8.40;1.10;;;;;;;7.05;58.99;100716.25;4986124;28;114213;-66
2023/02/25 01:19:38;;;;;;;14.52;1.80;;;;;;;7.05;58.90;100703.09;4990741;28;114120;-67
2023/02/25 01:22:06;;;;;;;8.48;1.27;;;;;;;7.05;58.88;100708.34;4972658;28;123562;-67
2023/02/25 01:24:33;;;;;;;8.55;1.42;;;;;;;7.05;59.20;100713.63;4975682;28;123381;-67
2023/02/25 01:27:02;;;;;;;7.68;1.23;;;;;;;7.07;59.13;100710.94;4990557;28;114929;-70
2023/02/25 01:29:33;;;;;;;9.52;1.35;;;;;;;7.08;59.03;100717.91;4991717;28;113767;-67
2023/02/25 01:32:02;;;;;;;13.18;1.60;;;;;;;7.08;58.96;100713.50;4992979;28;124238;-67
2023/02/25 01:34:30;;;;;;;12.38;1.30;;;;;;;7.09;58.93;100704.69;4975714;28;124074;-67
2023/02/25 01:37:01;;;;;;;7.03;1.45;;;;;;;7.11;59.14;100713.41;4974623;28;114709;-65
2023/02/25 01:39:28;;;;;;;5.70;1.52;;;;;;;7.13;59.22;100714.22;4976044;28;114432;-71
2023/02/25 01:41:58;;;;;;;7.25;1.33;;;;;;;7.14;58.97;100713.31;4974172;28;123610;-66
2023/02/25 01:44:33;;;;;;;6.90;1.50;;;;;;;7.15;59.22;100709.75;4992265;28;123836;-65
2023/02/25 01:47:00;;;;;;;8.68;1.13;;;;;;;7.17;59.32;100715.81;4974885;28;113401;-66
2023/02/25 01:49:55;;;;;;;12.20;1.27;;;;;;;7.18;59.26;100704.41;4991312;28;114090;-65
2023/02/25 01:52:24;;;;;;;11.65;1.38;;;;;;;7.19;58.98;100706.09;4986967;28;124158;-66
2023/02/25 01:54:56;;;;;;;5.18;1.02;;;;;;;7.24;59.22;100710.38;4973548;28;124878;-66
2023/02/25 01:57:24;;;;;;;9.30;1.60;;;;;;;7.26;59.13;100708.56;4955756;28;113438;-66
2023/02/25 01:59:53;;;;;;;9.32;1.77;;;;;;;7.28;59.11;100709.34;4975191;28;113754;-69
2023/02/25 02:02:25;;;;;;;7.55;1.20;;;;;;;7.31;58.84;100703.97;4958626;28;121946;-66
2023/02/25 02:04:53;;;;;;;7.70;1.90;;;;;;;7.32;59.21;100695.16;4992337;28;123952;-66
2023/02/25 02:07:23;;;;;;;7.90;1.30;;;;;;;7.34;59.43;100703.88;4991516;28;114533;-66
2023/02/25 02:09:57;;;;;;;12.13;1.35;;;;;;;7.37;58.96;100699.38;4972503;28;114164;-66
2023/02/25 02:12:30;;;;;;;7.25;0.90;;;;;;;7.39;59.07;100701.94;4971699;28;123219;-65
2023/02/25 02:15:02;;;;;;;5.28;1.17;;;;;;;7.42;59.02;100699.19;4974407;28;125741;-66
2023/02/25 02:17:54;;;;;;;12.95;1.40;;;;;;;7.44;58.92;100710.56;4973036;28;113962;-66
2023/02/25 02:20:51;;;;;;;9.75;1.20;;;;;;;7.46;59.23;100714.00;4974873;28;113124;-66
2023/02/25 02:23:37;;;;;;;9.75;1.50;;;;;;;7.47;58.92;100707.81;4988178;28;124796;-66
2023/02/25 02:26:10;;;;;;;5.90;1.27;;;;;;;7.48;59.16;100717.44;4988843;28;123926;-66
2023/02/25 02:28:59;;;;;;;10.57;1.30;;;;;;;7.49;59.10;100713.88;4972769;28;115097;-66
2023/02/25 02:31:42;;;;;;;6.43;1.10;;;;;;;7.51;59.13;100727.88;4990505;28;114981;-66
2023/02/25 02:34:19;;;;;;;6.57;1.40;;;;;;;7.52;58.92;100716.44;4973747;28;123666;-66
2023/02/25 02:36:58;;;;;;;8.27;1.40;;;;;;;7.53;59.17;100720.75;4991657;28;123934;-66
2023/02/25 02:39:43;;;;;;;6.50;1.00;;;;;;;7.54;58.88;100717.22;4974681;28;113103;-66
2023/02/25 02:42:41;;;;;;;6.35;1.05;;;;;;;7.54;59.15;100719.00;4989501;28;113472;-66
2023/02/25 02:45:39;;;;;;;6.63;1.10;;;;;;;7.53;58.79;100715.50;4936395;28;123820;-66
2023/02/25 02:48:23;;;;;;;7.80;1.13;;;;;;;7.55;58.80;100718.09;4941478;28;123063;-66
2023/02/25 02:50:56;;;;;;;7.97;0.90;;;;;;;7.52;59.04;100719.06;4961185;28;113206;-70
2023/02/25 02:53:31;;;;;;;6.75;1.30;;;;;;;7.49;58.64;100719.16;4974243;28;112562;-65
2023/02/25 02:56:01;;;;;;;8.43;1.60;;;;;;;7.50;58.82;100715.63;4989069;28;123253;-65
2023/02/25 02:58:52;;;;;;;8.20;1.20;;;;;;;7.48;58.65;100712.19;4973860;28;122794;-66
2023/02/25 03:01:25;;;;;;;7.22;1.23;;;;;;;7.47;58.53;100718.34;4973638;28;114164;-66
2023/02/25 03:04:04;;;;;;;8.02;0.95;;;;;;;7.46;58.57;100724.56;4971490;28;113017;-65
2023/02/25 03:06:39;;;;;;;9.73;1.20;;;;;;;7.44;58.56;100726.38;4985674;28;124618;-66
2023/02/25 03:09:15;;;;;;;8.73;1.55;;;;;;;7.42;58.69;100722.91;4986601;28;124701;-66
2023/02/25 03:11:42;;;;;;;;;;;;;;;7.40;58.81;100724.72;4974694;28;113492;-68
2023/02/25 03:14:11;;;;;;;11.15;1.23;;;;;;;7.39;58.62;100720.41;4974337;28;113225;-66
2023/02/25 03:16:50;;;;;;;7.53;1.42;;;;;;;7.37;58.73;100724.84;4988292;28;124269;-65
2023/02/25 03:19:27;;;;;;;9.18;1.52;;;;;;;7.37;58.58;100719.59;4970343;28;124367;-65
2023/02/25 03:22:26;;;;;;;7.18;0.80;;;;;;;7.36;58.98;100723.13;4966521;28;114416;-65
2023/02/25 03:25:00;;;;;;;7.57;1.30;;;;;;;7.36;58.82;100713.44;4987358;28;115171;-65
2023/02/25 03:27:35;;;;;;;7.05;1.55;;;;;;;7.37;58.86;100714.31;4987517;28;123272;-67
2023/02/25 03:30:28;;;;;;;4.60;1.00;;;;;;;7.35;58.61;100717.00;4970036;28;122870;-67
2023/02/25 03:33:07;;;;;;;9.95;1.40;;;;;;;7.36;58.62;100728.38;4974253;28;113126;-66
2023/02/25 03:35:37;;;;;;;4.82;1.08;;;;;;;7.35;58.80;100724.91;4988652;28;114633;-66
2023/02/25 03:38:08;;;;;;;8.38;1.23;;;;;;;7.36;58.74;100729.25;4971871;28;123480;-67
2023/02/25 03:40:38;;;;;;;8.13;1.10;;;;;;;7.38;58.88;100726.56;4973238;28;123649;-66
2023/02/25 03:43:16;;;;;;;9.63;1.27;;;;;;;7.38;59.09;100729.19;4973792;28;113698;-66
2023/02/25 03:45:45;;;;;;;9.68;1.20;;;;;;;7.38;58.88;100726.56;4973055;28;113023;-65
2023/02/25 03:48:15;;;;;;;5.05;0.82;;;;;;;7.40;58.87;100735.28;4973040;28;123454;-66
2023/02/25 03:50:47;;;;;;;4.50;0.80;;;;;;;7.41;58.78;100731.75;4988906;28;124069;-67
2023/02/25 03:53:14;;;;;;;9.02;1.08;;;;;;;7.40;58.98;100730.00;4973129;28;113527;-67
2023/02/25 03:55:49;;;;;;;4.53;0.77;;;;;;;7.40;58.87;100730.00;4970521;28;116161;-66
2023/02/25 03:58:16;;;;;;;4.88;1.00;;;;;;;7.40;58.67;100735.28;4972914;28;123155;-66
2023/02/25 04:00:48;;;;;;;6.70;1.30;;;;;;;7.40;58.86;100732.63;4973079;28;123057;-66
2023/02/25 04:03:15;;;;;;;5.30;0.80;;;;;;;7.40;58.66;100740.53;4969459;28;112255;-66
2023/02/25 04:05:44;;;;;;;6.93;1.30;;;;;;;7.40;58.86;100740.53;4973289;28;113123;-73
2023/02/25 04:08:14;;;;;;;9.10;1.23;;;;;;;7.41;58.90;100742.28;4990630;28;124204;-66
2023/02/25 04:10:45;;;;;;;6.90;1.00;;;;;;;7.42;58.78;100749.25;4972717;28;123003;-66
2023/02/25 04:13:14;;;;;;;4.20;0.80;;;;;;;7.43;58.85;100751.00;4970309;28;114467;-66
2023/02/25 04:15:42;;;;;;;6.13;1.13;;;;;;;7.43;58.88;100745.72;4972362;28;114617;-66
2023/02/25 04:18:10;;;;;;;7.43;0.80;;;;;;;7.43;58.71;100735.19;4970809;28;123406;-66
2023/02/25 04:20:38;;;;;;;7.45;1.27;;;;;;;7.43;58.77;100745.72;4988060;28;123735;-67
2023/02/25 04:23:06;;;;;;;5.00;1.20;;;;;;;7.43;58.93;100740.44;4973026;28;112422;-68
2023/02/25 04:25:33;;;;;;;8.07;1.20;;;;;;;7.43;58.65;100745.72;4987527;28;114111;-66
2023/02/25 04:28:02;;;;;;;8.20;1.40;;;;;;;7.42;58.58;100749.25;4987849;28;124121;-66
2023/02/25 04:30:29;;;;;;;6.95;1.50;;;;;;;7.43;58.71;100737.81;4989118;28;124651;-66
2023/02/25 04:32:59;;;;;;;6.93;1.20;;;;;;;7.42;58.64;100743.97;4990747;28;115131;-66
2023/02/25 04:35:26;;;;;;;9.55;1.17;;;;;;;7.43;58.70;100744.88;4987568;28;114297;-66
2023/02/25 04:37:53;;;;;;;11.13;1.45;;;;;;;7.44;58.54;100751.84;4989838;28;123943;-66
2023/02/25 04:40:22;;;;;;;9.07;1.60;;;;;;;7.44;58.95;100752.72;4988112;28;124077;-66
2023/02/25 04:42:50;;;;;;;8.80;1.55;;;;;;;7.45;58.94;100751.78;4990807;28;114638;-66
2023/02/25 04:45:17;;;;;;;9.80;1.60;;;;;;;7.46;58.96;100771.97;4989120;28;114107;-66
2023/02/25 04:47:44;;;;;;;12.48;1.52;;;;;;;7.45;58.58;100770.25;4987759;28;123961;-66
2023/02/25 04:50:12;;;;;;;9.18;1.50;;;;;;;7.46;58.72;100782.53;4969597;28;124595;-65
2023/02/25 04:52:40;;;;;;;7.10;1.50;;;;;;;7.48;58.95;100780.69;4990073;28;114144;-66
2023/02/25 04:55:09;;;;;;;10.73;1.83;;;;;;;7.49;59.10;100782.41;4973242;28;113204;-67
2023/02/25 04:57:41;;;;;;;6.30;1.67;;;;;;;7.52;59.03;100773.56;4986833;28;123973;-66
2023/02/25 05:00:15;;;;;;;6.45;1.30;;;;;;;7.54;58.83;100771.72;4970057;28;123330;-66
2023/02/25 05:02:42;;;;;;;10.20;1.55;;;;;;;7.57;58.96;100785.66;4989650;28;115010;-66
2023/02/25 05:05:10;;;;;;;7.72;1.67;;;;;;;7.59;58.58;100778.56;4966684;28;115216;-66
2023/02/25 05:07:37;;;;;;;11.27;1.50;;;;;;;7.63;59.00;100781.06;4971806;28;124520;-66
2023/02/25 05:10:07;;;;;;;8.52;1.70;;;;;;;7.63;58.64;100781.97;4987548;28;123710;-66
2023/02/25 05:12:36;;;;;;;9.05;1.48;;;;;;;7.62;58.80;100771.47;4971821;28;114076;-65
2023/02/25 05:15:04;;;;;;;9.77;1.70;;;;;;;7.60;58.42;100767.09;4987358;28;114032;-66
2023/02/25 05:17:31;;;;;;;8.00;1.30;;;;;;;7.58;58.65;100766.28;4972356;28;124042;-67
2023/02/25 05:19:59;;;;;;;10.23;1.83;;;;;;;7.55;58.68;100761.13;4987937;28;124663;-66
2023/02/25 05:22:27;;;;;;;8.35;1.50;;;;;;;7.53;58.75;100762.06;4989043;28;114713;-66
2023/02/25 05:24:54;;;;;;;9.80;1.35;;;;;;;7.49;58.39;100761.31;4989084;28;113789;-66
2023/02/25 05:27:21;;;;;;;9.00;1.70;;;;;;;7.46;58.28;100766.72;4988519;28;124405;-66
2023/02/25 05:29:50;;;;;;;16.42;1.80;;;;;;;7.42;58.56;100770.34;4971975;28;123669;-66
2023/02/25 05:32:17;;;;;;;8.43;1.50;;;;;;;7.39;58.18;100775.72;4971481;28;114704;-66
2023/02/25 05:34:44;;;;;;;8.75;1.52;;;;;;;7.34;58.17;100777.63;4988112;28;114005;-66
2023/02/25 05:37:12;;;;;;;8.02;1.83;;;;;;;7.30;58.30;100776.03;4988052;28;124396;-66
2023/02/25 05:39:39;;;;;;;8.25;1.50;;;;;;;7.27;58.65;100765.56;4988980;28;123862;-66
2023/02/25 05:42:06;;;;;;;12.93;1.70;;;;;;;7.22;58.40;100774.50;4956408;28;113459;-66
2023/02/25 05:44:34;;;;;;;11.52;1.52;;;;;;;7.19;58.60;100779.84;4987685;28;114070;-66
2023/02/25 05:47:01;;;;;;;11.30;1.75;;;;;;;7.15;58.22;100767.69;4986231;28;123910;-66
2023/02/25 05:49:28;;;;;;;9.48;1.63;;;;;;;7.12;58.57;100778.34;4986804;28;123860;-66
2023/02/25 05:51:55;;;;;;;11.75;1.95;;;;;;;7.09;58.71;100777.56;4988452;28;115841;-66
2023/02/25 05:54:22;;;;;;;5.38;1.27;;;;;;;7.05;58.50;100771.53;4989168;28;114755;-70
2023/02/25 05:56:51;;;;;;;7.18;1.15;;;;;;;7.04;58.67;100785.59;4986164;28;123418;-67
2023/02/25 05:59:18;;;;;;;8.18;1.40;;;;;;;7.04;58.44;100782.97;4987012;28;124208;-71
2023/02/25 06:01:45;;;;;;;9.05;1.52;;;;;;;7.04;58.50;100790.88;4988244;28;113896;-65
2023/02/25 06:04:13;;;;;;;10.73;1.30;;;;;;;7.04;58.42;100797.91;4963602;28;114065;-65
2023/02/25 06:06:42;;;;;;;7.80;1.50;;;;;;;7.04;58.46;100796.13;4986492;28;124126;-73
2023/02/25 06:09:09;;;;;;;7.43;1.60;;;;;;;7.05;58.73;100797.03;4973457;28;124440;-66
2023/02/25 06:11:36;;;;;;;12.32;2.33;;;;;;;7.05;58.79;100792.63;4975287;28;113321;-65
2023/02/25 06:14:03;;;;;;;6.78;1.67;;;;;;;7.05;58.56;100787.34;4990917;28;114502;-65
2023/02/25 06:16:31;;;;;;;13.75;1.70;;;;;;;7.08;58.65;100797.75;4988599;28;124090;-65
2023/02/25 06:19:00;;;;;;;9.95;1.83;;;;;;;7.12;58.60;100804.69;4990278;28;124625;-66
2023/02/25 06:21:28;;;;;;;7.93;1.73;;;;;;;7.15;58.84;100808.97;4992341;28;114144;-66
2023/02/25 06:23:55;;;;;;;16.98;2.17;;;;;;;7.15;58.75;100804.56;4992166;28;113958;-65
2023/02/25 06:26:23;;;;;;;10.70;2.33;;;;;;;7.16;58.79;100805.44;4989128;28;124632;-67
2023/02/25 06:28:51;;;;;;;10.48;1.55;;;;;;;7.16;59.04;100811.56;4986758;28;124285;-67
2023/02/25 06:31:21;;;;;;;10.60;2.08;;;;;;;7.17;58.62;100812.44;4969509;28;114085;-67
2023/02/25 06:33:49;;;;;;;8.60;1.70;;;;;;;7.17;59.01;100813.28;4991148;28;114316;-67
2023/02/25 06:36:20;;;;;;;9.90;1.58;;;;;;;7.16;58.87;100806.31;4988553;28;124163;-67
2023/02/25 06:38:48;;;;;;;11.50;1.48;;;;;;;7.17;58.85;100813.28;4991824;28;124393;-68
2023/02/25 06:41:19;;;;;;;11.23;1.45;;;;;;;7.17;59.07;100815.91;4991113;28;115570;-67
2023/02/25 06:43:50;;;;;;;13.40;1.65;;;;;;;7.19;58.68;100814.09;4989866;28;115350;-67
2023/02/25 06:46:20;;;;;;;13.50;1.60;;;;;;;7.18;59.00;100819.44;4972825;28;123725;-67
2023/02/25 06:48:48;;;;;;;17.90;1.92;;;;;;;7.17;58.54;100818.53;4991978;28;124170;-68
2023/02/25 06:51:15;;;;;;;11.88;1.80;;;;;;;7.16;58.96;100822.09;4990195;28;114057;-68
2023/02/25 06:53:43;;;;;;;7.63;1.60;;;;;;;7.16;58.85;100826.53;4972890;28;114099;-69
2023/02/25 06:56:13;;;;;;;13.38;2.30;;;;;;;7.15;59.03;100836.16;4989481;28;124516;-71
2023/02/25 06:58:41;;;;;;;8.27;1.52;;;;;;;7.16;59.03;100832.63;4974694;28;123424;-69
2023/02/25 07:01:12;;;;;;;13.02;2.22;;;;;;;7.17;59.25;100836.97;4990988;28;114636;-68
2023/02/25 07:03:42;;;;;;;14.77;2.15;;;;;;;7.19;59.19;100842.22;4992360;28;113978;-68
2023/02/25 07:06:10;;;;;;;12.07;2.22;;;;;;;7.20;59.22;100844.81;4987991;28;124451;-68
2023/02/25 07:08:38;;;;;;;16.23;1.67;;;;;;;7.24;59.04;100849.97;4989160;28;123910;-68
2023/02/25 07:11:11;;;;;;;12.10;2.17;;;;;;;7.25;59.21;100847.28;4971734;28;113970;-68
2023/02/25 07:13:42;;;;;;;7.72;1.60;;;;;;;7.28;58.98;100846.34;4991428;28;114143;-68
2023/02/25 07:16:11;;;;;;;10.50;1.60;;;;;;;7.29;59.32;100854.19;4972871;28;124064;-68
2023/02/25 07:18:39;;;;;;;13.20;2.03;;;;;;;7.31;59.15;100857.66;4969292;28;123791;-68
2023/02/25 07:21:08;;;;;;;17.70;1.77;;;;;;;7.32;58.83;100858.50;4989809;28;114574;-68
2023/02/25 07:23:35;;;;;;;11.48;1.60;;;;;;;7.33;58.89;100854.97;4989835;28;114144;-68
2023/02/25 07:26:04;;;;;;;9.35;1.52;;;;;;;7.35;58.76;100858.41;4990514;28;124200;-68
2023/02/25 07:28:32;;;;;;;9.98;1.60;;;;;;;7.39;59.13;100860.88;4985983;28;123875;-68
2023/02/25 07:31:00;;;;;;;12.68;1.75;;;;;;;7.43;59.26;100881.88;4971890;28;114955;-68
2023/02/25 07:33:28;;;;;;;8.45;1.40;;;;;;;7.47;58.96;100868.56;4970880;28;114923;-68
2023/02/25 07:35:57;;;;;;;6.30;1.20;;;;;;;7.50;59.16;100878.16;4988334;28;123801;-68
2023/02/25 07:38:24;;;;;;;8.60;1.63;;;;;;;7.54;59.03;100879.78;4973429;28;124331;-68
2023/02/25 07:40:51;;;;;;;6.38;1.15;;;;;;;7.56;59.46;100884.06;4986556;28;114283;-67
2023/02/25 07:43:18;;;;;;;6.00;1.40;;;;;;;7.57;59.48;100896.34;4989259;28;114262;-68
2023/02/25 07:45:48;;;;;;;7.35;1.10;;;;;;;7.59;59.42;100899.81;4988831;28;124578;-67
2023/02/25 07:48:15;;;;;;;10.10;1.65;;;;;;;7.60;59.28;100896.25;4989635;28;123892;-68
2023/02/25 07:50:43;;;;;;;6.65;1.70;;;;;;;7.60;59.16;100883.06;4988863;28;115073;-68
2023/02/25 07:53:10;;;;;;;11.27;1.20;;;;;;;7.60;59.47;100874.31;4991713;28;116038;-68
2023/02/25 07:55:37;;;;;;;10.48;1.23;;;;;;;7.60;59.30;100875.16;4987429;28;123525;-68
2023/02/25 07:58:04;;;;;;;7.03;1.20;;;;;;;7.60;59.49;100885.69;4988455;28;124040;-68
2023/02/25 08:00:34;;;;;;;6.63;1.27;;;;;;;7.62;59.38;100892.69;4989658;28;114100;-69
2023/02/25 08:03:03;;;;;;;11.07;1.65;;;;;;;7.63;59.38;100899.69;4973237;28;114605;-70
2023/02/25 08:05:34;;;;;;;8.48;1.65;;;;;;;7.66;59.22;100896.97;4988183;28;123926;-66
2023/02/25 08:08:03;;;;;;;8.95;1.23;;;;;;;7.67;59.60;100896.06;4991287;28;123947;-69
2023/02/25 08:10:31;;;;;;;11.07;1.40;;;;;;;7.71;59.29;100897.69;4972690;28;114429;-68
2023/02/25 08:12:58;;;;;;;17.63;1.80;;;;;;;7.74;59.28;100894.94;4975051;28;114667;-75
2023/02/25 08:15:26;;;;;;;6.88;1.30;;;;;;;7.78;59.25;100888.66;4990753;28;124908;-71
2023/02/25 08:17:54;;;;;;;11.48;1.77;;;;;;;7.84;59.33;100899.00;4989769;28;124492;-68
2023/02/25 08:20:22;;;;;;;8.05;1.48;;;;;;;7.89;59.68;100886.53;4989711;28;115670;-68
2023/02/25 08:22:50;;;;;;;10.93;1.92;;;;;;;7.96;59.61;100897.72;4989795;28;115969;-69
2023/02/25 08:25:17;;;;;;;9.05;1.95;;;;;;;8.03;59.64;100898.41;4972196;28;123394;-69
2023/02/25 08:27:45;;;;;;;13.88;2.28;;;;;;;8.09;59.67;100892.91;4970918;28;124378;-69
2023/02/25 08:30:12;;;;;;;6.38;1.98;;;;;;;8.13;59.26;100897.16;4990207;28;114177;-69
2023/02/25 08:32:41;;;;;;;11.13;1.90;;;;;;;8.16;59.30;100899.72;4989437;28;113868;-69
2023/02/25 08:35:09;;;;;;;15.57;2.00;;;;;;;8.20;59.47;100901.31;4988367;28;124920;-69
2023/02/25 08:37:37;;;;;;;9.73;1.67;;;;;;;8.24;59.62;100908.22;4971253;28;122891;-69
2023/02/25 08:40:09;;;;;;;8.55;1.80;;;;;;;8.30;59.10;100908.00;4986876;28;114564;-69
2023/02/25 08:42:38;;;;;;;11.13;2.20;;;;;;;8.34;59.58;100909.63;4989483;28;113863;-69
2023/02/25 08:45:09;;;;;;;9.02;1.77;;;;;;;8.37;59.25;100914.78;4986403;28;123364;-68
2023/02/25 08:47:38;;;;;;;7.85;1.65;;;;;;;8.43;59.33;100926.09;4973224;28;123134;-67
2023/02/25 08:50:05;;;;;;;11.50;1.48;;;;;;;8.45;59.39;100916.34;4974475;28;113805;-67
2023/02/25 08:52:33;;;;;;;11.80;1.42;;;;;;;8.48;59.37;100926.78;4990200;28;114111;-67
2023/02/25 08:55:02;;;;;;;7.97;1.35;;;;;;;8.50;59.19;100924.97;4989256;28;124354;-66
2023/02/25 08:57:30;;;;;;;10.65;1.45;;;;;;;8.51;59.28;100916.09;4989925;28;125104;-67
2023/02/25 08:59:57;;;;;;;10.18;1.67;;;;;;;8.52;59.20;100907.28;4987543;28;116596;-70
2023/02/25 09:02:28;;;;;;;9.63;1.48;;;;;;;8.54;59.00;100916.00;4990892;28;114277;-68
2023/02/25 09:04:55;;;;;;;9.70;1.60;;;;;;;8.58;59.15;100928.19;4988411;28;123820;-71
2023/02/25 09:07:22;;;;;;;14.23;2.60;;;;;;;8.61;59.32;100921.91;4967350;28;123677;-68
2023/02/25 09:09:50;;;;;;;6.50;1.30;;;;;;;8.68;59.55;100924.31;4988328;28;114315;-69
2023/02/25 09:12:17;;;;;;;6.07;1.52;;;;;;;8.77;59.40;100913.41;4991451;28;115194;-70
2023/02/25 09:14:44;;;;;;;11.90;1.77;;;;;;;8.86;59.21;100927.19;4988198;28;124173;-69
2023/02/25 09:17:13;;;;;;;7.47;1.48;;;;;;;8.92;59.21;100937.53;4983126;28;123616;-68
2023/02/25 09:19:40;;;;;;;13.43;1.88;;;;;;;8.96;59.06;100944.41;4984631;28;114170;-69
2023/02/25 09:22:08;;;;;;;12.57;2.00;;;;;;;9.00;58.79;100940.75;4985956;28;113815;-69
2023/02/25 09:24:36;;;;;;;7.55;1.73;;;;;;;9.04;59.00;100942.38;4968638;28;123076;-70
2023/02/25 09:27:06;;;;;;;10.10;1.77;;;;;;;9.08;58.96;100959.84;4991055;28;123307;-68
2023/02/25 09:29:35;;;;;;;8.02;1.40;;;;;;;9.08;58.89;100959.84;4973503;28;113154;-69
2023/02/25 09:32:04;;;;;;;9.68;1.48;;;;;;;9.10;58.62;100963.28;4990817;28;113774;-71
2023/02/25 09:34:32;;;;;;;8.65;1.70;;;;;;;9.13;58.62;100960.50;4972985;28;123668;-69
2023/02/25 09:37:03;;;;;;;9.32;1.58;;;;;;;9.16;58.60;100962.19;4988185;28;125585;-71
2023/02/25 09:39:31;;;;;;;9.07;1.80;;;;;;;9.20;58.56;100962.94;4988924;28;114532;-69
2023/02/25 09:42:06;;;;;;;13.65;1.55;;;;;;;9.20;58.27;100955.00;4974041;28;114041;-68
2023/02/25 09:44:47;;;;;;;8.18;1.98;;;;;;;9.22;58.76;100961.09;4992468;28;123858;-68
2023/02/25 09:47:33;;;;;;;11.35;1.75;;;;;;;9.22;58.57;100966.38;4957953;28;124140;-70
2023/02/25 09:50:06;;;;;;;11.63;2.10;;;;;;;9.21;58.38;100985.78;4977699;28;113460;-68
2023/02/25 09:53:14;;;;;;;10.57;1.50;;;;;;;9.15;58.36;100998.31;4995782;28;114119;-72
2023/02/25 09:55:46;;;;;;;7.55;1.20;;;;;;;9.10;57.97;101026.69;4978888;28;123970;-68
2023/02/25 09:58:22;;;;;;;5.95;0.80;;;;;;;8.99;57.53;101010.34;4994873;28;123740;-70
2023/02/25 10:01:05;;;;;;;2.47;0.68;;;;;;;8.83;57.35;101011.81;4967587;28;115820;-75
2023/02/25 10:03:54;;;;;;;4.55;0.80;;;;;;;8.68;57.62;101014.09;4992407;28;115499;-70
2023/02/25 10:06:33;;;;;;;3.03;0.60;;;;;;;8.60;57.46;101031.09;4991991;28;124643;-74
2023/02/25 10:09:38;;;;;;;3.35;0.85;;;;;;;8.51;57.39;101042.81;4991806;28;123316;-68
2023/02/25 10:12:14;;;;;;;3.10;0.60;;;;;;;8.47;57.60;101038.56;4993171;28;114687;-70
2023/02/25 10:15:21;;;;;;;4.15;1.02;;;;;;;8.43;57.93;101032.50;4991295;28;114215;-71
2023/02/25 10:18:10;;;;;;;3.10;0.68;;;;;;;8.47;58.07;101030.63;4991462;28;124518;-69
2023/02/25 10:20:45;;;;;;;1.80;0.50;;;;;;;8.52;58.50;101034.00;4992206;28;123926;-67
2023/02/25 10:23:35;;;;;;;1.90;0.70;;;;;;;8.55;58.23;101039.16;4974720;28;114352;-69
2023/02/25 10:26:16;;;;;;;2.30;0.70;;;;;;;8.60;57.89;101044.28;4988891;28;113940;-68
2023/02/25 10:28:47;;;;;;;2.13;0.60;;;;;;;8.64;57.91;101049.41;4984685;28;124435;-68
2023/02/25 10:31:19;;;;;;;6.13;0.80;;;;;;;8.72;58.13;101051.78;4992338;28;124429;-69
2023/02/25 10:33:50;;;;;;;4.72;0.73;;;;;;;8.82;58.44;101047.06;4993041;28;114418;-70
2023/02/25 10:36:26;;;;;;;2.95;0.70;;;;;;;8.92;58.08;101048.47;4985673;28;114607;-70
2023/02/25 10:38:53;;;;;;;2.10;0.70;;;;;;;9.01;57.96;101064.00;4975630;28;123226;-71
2023/02/25 10:41:23;;;;;;;3.20;0.70;;;;;;;9.11;57.93;101070.66;4974584;28;124551;-70
2023/02/25 10:43:53;;;;;;;3.30;0.65;;;;;;;9.23;57.92;101063.22;4990214;28;114486;-71
2023/02/25 10:46:45;;;;;;;5.13;0.63;;;;;;;9.31;57.65;101066.47;4990403;28;114491;-70
2023/02/25 10:49:21;;;;;;;3.15;1.10;;;;;;;9.35;57.19;101079.50;4974186;28;124334;-72
2023/02/25 10:52:14;;;;;;;5.10;0.80;;;;;;;9.37;56.96;101079.47;4974861;28;122912;-70
2023/02/25 10:54:51;;;;;;;2.85;0.60;;;;;;;9.35;56.30;101073.38;4974081;28;114127;-70
2023/02/25 10:57:26;;;;;;;2.83;0.50;;;;;;;9.28;55.88;101063.94;4990006;28;114514;-71
2023/02/25 11:00:00;;;;;;;2.15;0.50;;;;;;;9.19;56.21;101066.91;4975347;28;124125;-70
2023/02/25 11:02:30;;;;;;;1.45;0.40;;;;;;;9.18;56.40;101067.84;4992497;28;124037;-71
2023/02/25 11:04:57;;;;;;;2.85;0.68;;;;;;;9.20;56.44;101069.50;4971145;28;113439;-68
2023/02/25 11:07:41;;;;;;;1.92;0.68;;;;;;;9.26;56.70;101073.69;4988368;28;114029;-70
2023/02/25 11:10:20;;;;;;;3.63;0.80;;;;;;;9.35;56.54;101062.78;4981879;28;124270;-70
2023/02/25 11:12:53;;;;;;;6.07;0.93;;;;;;;9.45;56.49;101069.47;4992566;28;123618;-68
2023/02/25 11:15:26;;;;;;;7.35;0.88;;;;;;;9.56;56.31;101066.44;4990862;28;114922;-68
2023/02/25 11:18:21;;;;;;;3.42;0.80;;;;;;;9.63;56.08;101053.84;4989950;28;114009;-68
2023/02/25 11:20:55;;;;;;;5.15;0.77;;;;;;;9.67;55.67;101058.09;4990573;28;124200;-68
2023/02/25 11:23:35;;;;;;;4.07;0.90;;;;;;;9.70;55.54;101063.25;4988346;28;124047;-69
2023/02/25 11:26:05;;;;;;;4.88;1.08;;;;;;;9.73;55.38;101068.44;4989854;28;114128;-72
2023/02/25 11:28:38;;;;;;;3.63;1.00;;;;;;;9.72;55.08;101077.31;4986769;28;113502;-68
2023/02/25 11:31:18;;;;;;;5.85;1.23;;;;;;;9.68;54.63;101091.53;4989548;28;124720;-68
2023/02/25 11:33:57;;;;;;;3.92;0.73;;;;;;;9.59;53.44;101128.91;4986124;28;124309;-68
2023/02/25 11:36:44;;;;;;;1.17;0.73;;;;;;;9.36;52.83;101127.94;4973079;28;114273;-68
2023/02/25 11:39:24;;;;;;;2.25;0.68;;;;;;;9.11;53.10;101123.53;4989756;28;113962;-69
2023/02/25 11:41:54;;;;;;;1.77;0.80;;;;;;;8.93;53.19;101124.16;4986717;28;124076;-69
2023/02/25 11:44:25;;;;;;;3.33;0.60;;;;;;;8.79;53.00;101110.56;4987799;28;124197;-69